Aviation Digital Data Service (ADDS)

Output produced by METARs form (2353 UTC 03 December 2016)
found at http://aviationweather.gov/adds/metars/
 
KCLT 032327Z 0400/0424 07003KT P6SM OVC150 
     FM040800 08003KT P6SM VCSH BKN050 OVC100 
     PROB30 0410/0415 4SM -RA BR OVC035 
     FM041500 08004KT 3SM -RA BR OVC025 
     FM042100 07005KT 2SM -RA BR OVC010